Terminal Aerodrome Forecast
Issued by NWS Charleston, WV

Current Version | Previous Version | Text Only | Print | Product List | Glossary Off
Versions: 1 2 3 4 5 6 7 8 9 10 11 12 13 14 15 16 17 18 19 20 21 22 23 24 25 26 27 28 29

000
FTUS41 KRLX 011400 AAA
TAFBKW
TAF AMD
KBKW 011451Z 0115/0212 16003KT P6SM OVC070
     FM012100 16012G18KT P6SM BKN140
     FM020000 17014G21KT 6SM -RA BR OVC035
     FM020500 17013G20KT 3SM -RA BR OVC015
     FM021000 23010G15KT 2SM -RASN BR OVC008=

USA.gov is the U.S. government's official web portal to all federal, state and local government web resources and services.